Time,TemperatureF,DewpointF,PressureIn,WindDirection,WindDirectionDegrees,WindSpeedMPH,WindSpeedGustMPH,Humidity,HourlyPrecipIn,Conditions,Clouds,dailyrainin,SoftwareType,DateUTC
2013-03-17 00:08:00,26.6,24.1,29.54,East,90,0.0,-999.0,90,-99.99,,,0.00,Acu-Link.com,2013-03-17 07:08:00,
2013-03-17 00:23:00,26.6,24.1,29.55,ESE,112,1.1,-999.0,90,-99.99,,,0.00,Acu-Link.com,2013-03-17 07:23:00,
2013-03-17 00:38:00,26.6,24.1,29.57,ESE,112,1.1,-999.0,90,-99.99,,,0.00,Acu-Link.com,2013-03-17 07:38:00,
2013-03-17 00:53:00,24.8,22.3,29.57,WNW,292,1.1,-999.0,90,-99.99,,,0.00,Acu-Link.com,2013-03-17 07:53:00,
2013-03-17 01:09:00,24.8,22.3,29.58,WNW,292,1.1,-999.0,90,-99.99,,,0.00,Acu-Link.com,2013-03-17 08:09:00,
2013-03-17 01:24:00,24.8,22.3,29.59,ESE,112,1.6,-999.0,90,-99.99,,,0.00,Acu-Link.com,2013-03-17 08:24:00,
2013-03-17 01:39:00,23.0,20.5,29.59,NE,45,1.1,-999.0,90,-99.99,,,0.00,Acu-Link.com,2013-03-17 08:39:00,
2013-03-17 01:54:00,24.8,22.3,29.61,ENE,67,1.1,-999.0,90,-99.99,,,0.00,Acu-Link.com,2013-03-17 08:54:00,
2013-03-17 02:10:00,24.8,22.3,29.62,ESE,112,1.1,-999.0,90,-99.99,,,0.00,Acu-Link.com,2013-03-17 09:10:00,
2013-03-17 02:25:00,24.8,22.3,29.62,East,90,0.0,-999.0,90,-99.99,,,0.00,Acu-Link.com,2013-03-17 09:25:00,
2013-03-17 02:40:00,24.8,22.0,29.63,West,270,0.0,-999.0,89,-99.99,,,0.00,Acu-Link.com,2013-03-17 09:40:00,
2013-03-17 02:55:00,24.8,22.0,29.63,South,180,0.0,-999.0,89,-99.99,,,0.00,Acu-Link.com,2013-03-17 09:55:00,
2013-03-17 03:26:00,24.8,22.0,29.65,East,90,1.1,-999.0,89,-99.99,,,0.00,Acu-Link.com,2013-03-17 10:26:00,
2013-03-17 04:12:00,24.8,22.0,29.66,North,0,0.0,-999.0,89,-99.99,,,0.00,Acu-Link.com,2013-03-17 11:12:00,
2013-03-17 04:27:00,24.8,21.8,29.67,East,90,0.0,-999.0,88,-99.99,,,0.00,Acu-Link.com,2013-03-17 11:27:00,
2013-03-17 04:42:00,23.0,20.0,29.68,South,180,0.0,-999.0,88,-99.99,,,0.00,Acu-Link.com,2013-03-17 11:42:00,
2013-03-17 04:58:00,23.0,20.0,29.68,ENE,67,0.0,-999.0,88,-99.99,,,0.00,Acu-Link.com,2013-03-17 11:58:00,
2013-03-17 05:13:00,23.0,20.0,29.69,South,180,1.1,-999.0,88,-99.99,,,0.00,Acu-Link.com,2013-03-17 12:13:00,
2013-03-17 05:28:00,23.0,20.3,29.70,East,90,1.1,-999.0,89,-99.99,,,0.00,Acu-Link.com,2013-03-17 12:28:00,
2013-03-17 05:43:00,23.0,20.3,29.71,NW,315,1.1,-999.0,89,-99.99,,,0.00,Acu-Link.com,2013-03-17 12:43:00,
2013-03-17 05:59:00,23.0,20.3,29.71,SE,135,1.1,-999.0,89,-99.99,,,0.00,Acu-Link.com,2013-03-17 12:59:00,
2013-03-17 06:14:00,23.0,20.3,29.71,WSW,247,0.0,-999.0,89,-99.99,,,0.00,Acu-Link.com,2013-03-17 13:14:00,
2013-03-17 06:29:00,21.2,18.2,29.72,North,0,0.0,-999.0,88,-99.99,,,0.00,Acu-Link.com,2013-03-17 13:29:00,
2013-03-17 06:44:00,21.2,18.2,29.72,East,90,0.0,-999.0,88,-99.99,,,0.00,Acu-Link.com,2013-03-17 13:44:00,
2013-03-17 06:59:00,19.4,16.2,29.73,ENE,67,0.0,-999.0,87,-99.99,,,0.00,Acu-Link.com,2013-03-17 13:59:00,
2013-03-17 07:14:00,19.4,16.2,29.74,West,270,0.0,-999.0,87,-99.99,,,0.00,Acu-Link.com,2013-03-17 14:14:00,
2013-03-17 07:30:00,19.4,15.9,29.74,WNW,292,0.0,-999.0,86,-99.99,,,0.00,Acu-Link.com,2013-03-17 14:30:00,
2013-03-17 07:45:00,17.6,14.1,29.75,ESE,112,0.0,-999.0,86,-99.99,,,0.00,Acu-Link.com,2013-03-17 14:45:00,
2013-03-17 08:00:00,17.6,14.4,29.75,WSW,247,0.0,-999.0,87,-99.99,,,0.00,Acu-Link.com,2013-03-17 15:00:00,
2013-03-17 08:15:00,17.6,14.4,29.76,ESE,112,0.0,-999.0,87,-99.99,,,0.00,Acu-Link.com,2013-03-17 15:15:00,
2013-03-17 08:46:00,19.4,16.2,29.78,SSE,157,0.0,-999.0,87,-99.99,,,0.00,Acu-Link.com,2013-03-17 15:46:00,
2013-03-17 09:01:00,21.2,18.2,29.78,ENE,67,0.0,-999.0,88,-99.99,,,0.00,Acu-Link.com,2013-03-17 16:01:00,
2013-03-17 09:17:00,21.2,18.2,29.78,NW,315,0.0,-999.0,88,-99.99,,,0.00,Acu-Link.com,2013-03-17 16:17:00,
2013-03-17 09:32:00,23.0,20.0,29.78,NE,45,0.0,-999.0,88,-99.99,,,0.00,Acu-Link.com,2013-03-17 16:32:00,
2013-03-17 09:47:00,26.6,22.7,29.79,ENE,67,0.0,-999.0,85,-99.99,,,0.00,Acu-Link.com,2013-03-17 16:47:00,
2013-03-17 10:02:00,32.0,26.5,29.78,West,270,0.0,-999.0,80,-99.99,,,0.00,Acu-Link.com,2013-03-17 17:02:00,
2013-03-17 10:17:00,35.6,27.8,29.79,ESE,112,0.0,-999.0,73,-99.99,,,0.00,Acu-Link.com,2013-03-17 17:17:00,
2013-03-17 10:32:00,37.4,27.1,29.79,WSW,247,0.0,-999.0,66,-99.99,,,0.00,Acu-Link.com,2013-03-17 17:32:00,
2013-03-17 10:48:00,41.0,27.8,29.79,ENE,67,0.0,-999.0,59,-99.99,,,0.00,Acu-Link.com,2013-03-17 17:48:00,
2013-03-17 11:03:00,32.0,24.7,29.79,WSW,247,0.0,-999.0,74,-99.99,,,0.00,Acu-Link.com,2013-03-17 18:03:00,
2013-03-17 11:18:00,32.0,24.3,29.79,NE,45,0.0,-999.0,73,-99.99,,,0.00,Acu-Link.com,2013-03-17 18:18:00,
2013-03-17 11:33:00,32.0,24.0,29.79,West,270,0.0,-999.0,72,-99.99,,,0.01,Acu-Link.com,2013-03-17 18:33:00,
2013-03-17 11:48:00,32.0,25.6,29.79,WNW,292,0.0,-999.0,77,-99.99,,,0.02,Acu-Link.com,2013-03-17 18:48:00,
2013-03-17 12:03:00,32.0,24.3,29.78,ENE,67,1.1,-999.0,73,-99.99,,,0.05,Acu-Link.com,2013-03-17 19:03:00,
2013-03-17 12:18:00,32.0,24.0,29.78,WNW,292,2.7,-999.0,72,-99.99,,,0.09,Acu-Link.com,2013-03-17 19:18:00,
2013-03-17 12:49:00,32.0,25.6,29.78,ENE,67,0.0,-999.0,77,-99.99,,,0.13,Acu-Link.com,2013-03-17 19:49:00,
2013-03-17 13:04:00,32.0,25.9,29.78,ESE,112,0.0,-999.0,78,-99.99,,,0.14,Acu-Link.com,2013-03-17 20:04:00,
2013-03-17 13:19:00,32.0,25.6,29.78,ESE,112,2.0,-999.0,77,-99.99,,,0.17,Acu-Link.com,2013-03-17 20:19:00,
2013-03-17 13:34:00,32.0,25.9,29.77,NNW,337,0.0,-999.0,78,-99.99,,,0.20,Acu-Link.com,2013-03-17 20:34:00,
2013-03-17 13:49:00,32.0,25.3,29.76,SSE,157,0.0,-999.0,76,-99.99,,,0.22,Acu-Link.com,2013-03-17 20:49:00,
2013-03-17 14:04:00,32.0,27.1,29.76,South,180,0.0,-999.0,82,-99.99,,,0.24,Acu-Link.com,2013-03-17 21:04:00,
2013-03-17 14:19:00,32.0,25.3,29.76,West,270,1.1,-999.0,76,-99.99,,,0.26,Acu-Link.com,2013-03-17 21:19:00,
2013-03-17 14:34:00,33.8,26.4,29.76,WNW,292,0.0,-999.0,74,-99.99,,,0.27,Acu-Link.com,2013-03-17 21:34:00,
2013-03-17 14:50:00,32.0,24.3,29.76,West,270,1.6,-999.0,73,-99.99,,,0.27,Acu-Link.com,2013-03-17 21:50:00,
2013-03-17 15:05:00,30.2,26.0,29.76,SSE,157,0.0,-999.0,84,-99.99,,,0.27,Acu-Link.com,2013-03-17 22:05:00,
2013-03-17 15:20:00,32.0,26.2,29.76,NE,45,2.0,-999.0,79,-99.99,,,0.27,Acu-Link.com,2013-03-17 22:20:00,
2013-03-17 15:35:00,32.0,25.9,29.75,WSW,247,1.6,-999.0,78,-99.99,,,0.27,Acu-Link.com,2013-03-17 22:35:00,
2013-03-17 15:50:00,32.0,25.0,29.74,NE,45,0.0,-999.0,75,-99.99,,,0.27,Acu-Link.com,2013-03-17 22:50:00,
2013-03-17 16:05:00,32.0,25.0,29.74,SE,135,1.6,-999.0,75,-99.99,,,0.27,Acu-Link.com,2013-03-17 23:05:00,
2013-03-17 16:20:00,33.8,26.1,29.73,ESE,112,0.0,-999.0,73,-99.99,,,0.31,Acu-Link.com,2013-03-17 23:20:00,
2013-03-17 16:36:00,33.8,25.4,29.74,West,270,2.0,-999.0,71,-99.99,,,0.32,Acu-Link.com,2013-03-17 23:36:00,
2013-03-17 16:51:00,35.6,26.1,29.73,SE,135,0.0,-999.0,68,-99.99,,,0.33,Acu-Link.com,2013-03-17 23:51:00,
2013-03-17 17:06:00,35.6,24.6,29.73,SE,135,0.0,-999.0,64,-99.99,,,0.34,Acu-Link.com,2013-03-18 00:06:00,
2013-03-17 17:51:00,33.8,24.4,29.72,ESE,112,0.0,-999.0,68,-99.99,,,0.35,Acu-Link.com,2013-03-18 00:51:00,
2013-03-17 18:07:00,33.8,25.7,29.72,East,90,0.0,-999.0,72,-99.99,,,0.37,Acu-Link.com,2013-03-18 01:07:00,
2013-03-17 18:22:00,32.0,25.0,29.72,WSW,247,0.0,-999.0,75,-99.99,,,0.37,Acu-Link.com,2013-03-18 01:22:00,
2013-03-17 18:37:00,32.0,26.2,29.71,SSE,157,1.6,-999.0,79,-99.99,,,0.37,Acu-Link.com,2013-03-18 01:37:00,
2013-03-17 18:52:00,30.2,25.1,29.71,NE,45,0.0,-999.0,81,-99.99,,,0.37,Acu-Link.com,2013-03-18 01:52:00,
2013-03-17 19:07:00,30.2,25.4,29.71,West,270,0.0,-999.0,82,-99.99,,,0.37,Acu-Link.com,2013-03-18 02:07:00,
2013-03-17 19:22:00,28.4,24.2,29.71,SE,135,0.0,-999.0,84,-99.99,,,0.37,Acu-Link.com,2013-03-18 02:22:00,
2013-03-17 19:37:00,28.4,25.0,29.71,NE,45,0.0,-999.0,87,-99.99,,,0.37,Acu-Link.com,2013-03-18 02:37:00,
2013-03-17 19:52:00,28.4,25.3,29.72,East,90,0.0,-999.0,88,-99.99,,,0.37,Acu-Link.com,2013-03-18 02:52:00,
2013-03-17 20:07:00,28.4,25.3,29.72,ESE,112,0.0,-999.0,88,-99.99,,,0.37,Acu-Link.com,2013-03-18 03:07:00,
2013-03-17 20:23:00,163.4,18.9,29.72,WSW,247,0.0,-999.0,0,-99.99,,,0.37,Acu-Link.com,2013-03-18 03:23:00,
2013-03-17 20:38:00,28.4,25.6,29.72,South,180,0.0,-999.0,89,-99.99,,,0.37,Acu-Link.com,2013-03-18 03:38:00,
2013-03-17 20:53:00,28.4,25.6,29.72,NNE,22,0.0,-999.0,89,-99.99,,,0.37,Acu-Link.com,2013-03-18 03:53:00,
2013-03-17 21:08:00,26.6,23.8,29.71,WSW,247,0.0,-999.0,89,-99.99,,,0.37,Acu-Link.com,2013-03-18 04:08:00,
2013-03-17 21:23:00,26.6,23.8,29.71,West,270,0.0,-999.0,89,-99.99,,,0.37,Acu-Link.com,2013-03-18 04:23:00,
2013-03-17 21:39:00,26.6,23.8,29.72,WSW,247,0.0,-999.0,89,-99.99,,,0.37,Acu-Link.com,2013-03-18 04:39:00,
2013-03-17 21:54:00,28.4,25.8,29.72,West,270,0.0,-999.0,90,-99.99,,,0.37,Acu-Link.com,2013-03-18 04:54:00,
2013-03-17 22:09:00,28.4,27.7,29.73,WSW,247,4.7,-999.0,97,-99.99,,,0.37,Acu-Link.com,2013-03-18 05:09:00,
2013-03-17 22:25:00,26.6,24.3,29.73,NE,45,2.0,-999.0,91,-99.99,,,0.37,Acu-Link.com,2013-03-18 05:25:00,
2013-03-17 22:40:00,26.6,24.1,29.73,West,270,4.0,-999.0,90,-99.99,,,0.37,Acu-Link.com,2013-03-18 05:40:00,
2013-03-17 22:55:00,26.6,24.1,29.73,ESE,112,4.0,-999.0,90,-99.99,,,0.37,Acu-Link.com,2013-03-18 05:55:00,
2013-03-17 23:11:00,26.6,24.1,29.72,West,270,1.6,-999.0,90,-99.99,,,0.37,Acu-Link.com,2013-03-18 06:11:00,
2013-03-17 23:41:00,26.6,24.1,29.72,WSW,247,0.0,-999.0,90,-99.99,,,0.37,Acu-Link.com,2013-03-18 06:41:00,
2013-03-17 23:56:00,24.8,22.3,29.72,WNW,292,0.0,-999.0,90,-99.99,,,0.37,Acu-Link.com,2013-03-18 06:56:00,